createdAt,value
2019-06-08T00:01:36.098Z,19.70
2019-06-08T00:04:07.289Z,19.60
2019-06-08T00:06:37.515Z,19.60
2019-06-08T00:09:07.825Z,19.60
2019-06-08T00:11:40.120Z,19.60
2019-06-08T00:14:09.546Z,19.60
2019-06-08T00:16:39.576Z,19.60
2019-06-08T00:19:09.992Z,19.60
2019-06-08T00:21:40.274Z,19.50
2019-06-08T00:24:10.548Z,19.40
2019-06-08T00:26:40.777Z,19.40
2019-06-08T00:29:11.962Z,19.40
2019-06-08T00:31:42.180Z,19.40
2019-06-08T00:34:12.365Z,19.40
2019-06-08T00:36:42.579Z,19.40
2019-06-08T00:39:13.187Z,19.40
2019-06-08T00:41:43.475Z,19.30
2019-06-08T00:44:15.107Z,19.30
2019-06-08T00:46:45.385Z,19.30
2019-06-08T00:49:16.436Z,19.30
2019-06-08T00:51:46.769Z,19.30
2019-06-08T00:54:19.336Z,19.20
2019-06-08T00:56:49.608Z,19.20
2019-06-08T00:59:21.858Z,19.20
2019-06-08T01:01:51.327Z,19.20
2019-06-08T01:04:22.484Z,19.20
2019-06-08T01:06:54.018Z,19.20
2019-06-08T01:09:24.313Z,19.20
2019-06-08T01:11:54.507Z,19.20
2019-06-08T01:14:24.900Z,19.20
2019-06-08T01:16:56.110Z,19.10
2019-06-08T01:19:27.381Z,19.10
2019-06-08T01:21:59.983Z,19.00
2019-06-08T01:24:30.048Z,19.00
2019-06-08T01:27:00.307Z,19.00
2019-06-08T01:29:30.588Z,19.00
2019-06-08T01:32:00.770Z,19.00
2019-06-08T01:34:31.080Z,18.90
2019-06-08T01:37:01.265Z,18.90
2019-06-08T01:39:36.249Z,18.80
2019-06-08T01:42:06.439Z,18.70
2019-06-08T01:44:36.673Z,18.70
2019-06-08T01:47:06.839Z,18.70
2019-06-08T01:49:38.084Z,18.70
2019-06-08T01:52:08.267Z,18.70
2019-06-08T01:54:38.628Z,18.70
2019-06-08T01:57:08.879Z,18.70
2019-06-08T01:59:39.160Z,18.70
2019-06-08T02:02:09.359Z,18.70
2019-06-08T02:04:39.647Z,18.70
2019-06-08T02:07:09.893Z,18.70
2019-06-08T02:09:42.133Z,18.70
2019-06-08T02:12:12.323Z,18.70
2019-06-08T02:14:42.532Z,18.70
2019-06-08T02:17:12.905Z,18.70
2019-06-08T02:19:43.116Z,18.70
2019-06-08T02:22:13.429Z,18.70
2019-06-08T02:24:43.651Z,18.70
2019-06-08T02:27:13.838Z,18.60
2019-06-08T02:29:44.058Z,18.60
2019-06-08T02:32:21.117Z,18.50
2019-06-08T02:34:51.366Z,18.50
2019-06-08T02:37:22.672Z,18.40
2019-06-08T02:39:52.911Z,18.30
2019-06-08T02:42:23.266Z,18.20
2019-06-08T02:44:53.473Z,18.20
2019-06-08T02:47:28.523Z,18.20
2019-06-08T02:49:59.301Z,18.20
2019-06-08T02:52:31.464Z,18.20
2019-06-08T02:55:02.231Z,18.10
2019-06-08T02:57:35.442Z,18.10
2019-06-08T03:00:10.633Z,18.10
2019-06-08T03:02:42.321Z,18.10
2019-06-08T03:05:13.069Z,18.10
2019-06-08T03:07:45.577Z,18.20
2019-06-08T03:10:16.335Z,18.20
2019-06-08T03:12:47.877Z,18.20
2019-06-08T03:15:21.104Z,18.20
2019-06-08T03:17:51.308Z,18.20
2019-06-08T03:20:21.645Z,18.20
2019-06-08T03:22:51.866Z,18.30
2019-06-08T03:25:23.238Z,18.30
2019-06-08T03:27:53.404Z,18.30
2019-06-08T03:30:23.768Z,18.30
2019-06-08T03:32:56.441Z,18.30
2019-06-08T03:35:25.781Z,18.30
2019-06-08T03:37:56.065Z,18.30
2019-06-08T03:40:27.429Z,18.30
2019-06-08T03:42:59.711Z,18.30
2019-06-08T03:45:30.566Z,18.20
2019-06-08T03:48:00.786Z,18.20
2019-06-08T03:50:31.020Z,18.20
2019-06-08T03:53:01.354Z,18.30
2019-06-08T03:55:31.611Z,18.30
2019-06-08T03:58:01.902Z,18.30
2019-06-08T04:00:33.148Z,18.40
2019-06-08T04:03:03.394Z,18.40
2019-06-08T04:05:34.620Z,18.40
2019-06-08T04:08:04.930Z,18.40
2019-06-08T04:10:35.180Z,18.50
2019-06-08T04:13:22.426Z,18.50
2019-06-08T04:15:53.730Z,18.50
2019-06-08T04:18:23.965Z,18.50
2019-06-08T04:20:55.155Z,18.60
2019-06-08T04:23:25.430Z,18.60
2019-06-08T04:25:55.916Z,18.60
2019-06-08T04:28:26.121Z,18.70
2019-06-08T04:30:56.500Z,18.70
2019-06-08T04:33:26.865Z,18.70
2019-06-08T04:35:57.274Z,18.80
2019-06-08T04:38:30.002Z,18.80
2019-06-08T04:41:01.790Z,18.90
2019-06-08T04:43:32.987Z,18.90
2019-06-08T04:46:03.322Z,19.00
2019-06-08T04:48:34.858Z,18.90
2019-06-08T04:51:06.081Z,18.90
2019-06-08T04:53:36.264Z,19.00
2019-06-08T04:56:06.477Z,19.00
2019-06-08T04:58:39.804Z,19.10
2019-06-08T05:01:09.577Z,19.10
2019-06-08T05:03:42.811Z,19.20
2019-06-08T05:06:12.591Z,19.30
2019-06-08T05:08:43.085Z,19.30
2019-06-08T05:11:13.504Z,19.40
2019-06-08T05:13:45.259Z,19.50
2019-06-08T05:16:17.702Z,19.50
2019-06-08T05:18:49.457Z,19.60
2019-06-08T05:21:20.106Z,19.70
2019-06-08T05:23:58.224Z,19.80
2019-06-08T05:26:22.301Z,19.80
2019-06-08T05:28:52.589Z,20.00
2019-06-08T05:31:22.811Z,20.00
2019-06-08T05:33:54.244Z,20.10
2019-06-08T05:36:24.725Z,20.20
2019-06-08T05:38:55.025Z,20.20
2019-06-08T05:41:25.448Z,20.30
2019-06-08T05:43:55.616Z,20.40
2019-06-08T05:46:25.828Z,20.50
2019-06-08T05:48:56.098Z,20.50
2019-06-08T05:51:26.376Z,20.60
2019-06-08T05:53:56.733Z,20.60
2019-06-08T05:56:27.005Z,20.70
2019-06-08T05:58:59.173Z,20.80
2019-06-08T06:01:44.598Z,20.90
2019-06-08T06:04:15.929Z,20.90
2019-06-08T06:06:46.632Z,21.00
2019-06-08T06:09:16.921Z,21.10
2019-06-08T06:11:47.144Z,21.10
2019-06-08T06:14:18.298Z,21.10
2019-06-08T06:16:49.135Z,21.20
2019-06-08T06:19:20.694Z,21.20
2019-06-08T06:21:51.540Z,21.30
2019-06-08T06:24:26.045Z,21.40
2019-06-08T06:26:56.280Z,21.40
2019-06-08T06:29:26.796Z,21.40
2019-06-08T06:31:57.084Z,21.60
2019-06-08T06:34:28.353Z,21.60
2019-06-08T06:36:58.602Z,21.70
2019-06-08T06:39:29.735Z,21.80
2019-06-08T06:42:00.021Z,21.90
2019-06-08T06:44:30.282Z,21.90
2019-06-08T06:47:00.500Z,22.00
2019-06-08T06:49:30.691Z,22.00
2019-06-08T06:52:00.990Z,22.10
2019-06-08T06:54:31.229Z,22.20
2019-06-08T06:57:01.533Z,22.20
2019-06-08T06:59:32.880Z,22.30
2019-06-08T07:02:03.248Z,22.30
2019-06-08T07:04:33.468Z,22.40
2019-06-08T07:07:03.785Z,22.50
2019-06-08T07:09:34.058Z,22.60
2019-06-08T07:12:05.307Z,22.60
2019-06-08T07:14:35.481Z,22.70
2019-06-08T07:17:05.695Z,22.80
2019-06-08T07:19:36.010Z,22.90
2019-06-08T07:22:06.229Z,22.90
2019-06-08T07:24:36.540Z,22.90
2019-06-08T07:27:07.679Z,23.00
2019-06-08T07:29:38.013Z,23.10
2019-06-08T07:32:12.316Z,23.20
2019-06-08T07:34:42.534Z,23.20
2019-06-08T07:37:12.832Z,23.30
2019-06-08T07:39:43.060Z,23.40
2019-06-08T07:42:13.396Z,23.40
2019-06-08T07:44:43.634Z,23.50
2019-06-08T07:47:14.894Z,23.60
2019-06-08T07:49:45.143Z,23.60
2019-06-08T07:52:16.357Z,23.80
2019-06-08T07:54:46.614Z,23.80
2019-06-08T07:57:17.826Z,23.90
2019-06-08T07:59:49.171Z,23.90
2019-06-08T08:02:20.108Z,24.00
2019-06-08T08:04:50.514Z,24.00
2019-06-08T08:07:20.830Z,24.10
2019-06-08T08:09:53.035Z,24.10
2019-06-08T08:12:23.517Z,24.20
2019-06-08T08:14:55.213Z,24.30
2019-06-08T08:17:25.731Z,24.40
2019-06-08T08:19:57.296Z,24.50
2019-06-08T08:22:29.666Z,24.50
2019-06-08T08:25:04.169Z,24.60
2019-06-08T08:27:30.757Z,24.60
2019-06-08T08:30:02.084Z,24.70
2019-06-08T08:32:32.698Z,24.80
2019-06-08T08:35:08.576Z,24.90
2019-06-08T08:37:38.241Z,25.00
2019-06-08T08:40:09.226Z,25.10
2019-06-08T08:42:39.413Z,25.10
2019-06-08T08:45:10.200Z,25.30
2019-06-08T08:47:40.451Z,25.40
2019-06-08T08:50:10.986Z,25.50
2019-06-08T08:52:41.260Z,25.50
2019-06-08T08:55:30.962Z,25.60
2019-06-08T08:58:02.222Z,25.60
2019-06-08T09:00:32.734Z,25.70
2019-06-08T09:03:24.083Z,25.80
2019-06-08T09:05:34.793Z,25.80
2019-06-08T09:08:05.264Z,25.90
2019-06-08T09:10:51.766Z,25.90
2019-06-08T09:13:22.520Z,25.90
2019-06-08T09:15:53.766Z,26.00
2019-06-08T09:18:24.181Z,26.10
2019-06-08T09:20:55.893Z,26.20
2019-06-08T09:23:28.005Z,26.30
2019-06-08T09:26:05.964Z,26.40
2019-06-08T09:28:31.720Z,26.40
2019-06-08T09:31:04.065Z,26.60
2019-06-08T09:33:38.755Z,26.70
2019-06-08T09:36:09.944Z,26.80
2019-06-08T09:38:41.335Z,26.90
2019-06-08T09:41:12.805Z,26.90
2019-06-08T09:43:44.384Z,27.00
2019-06-08T09:46:17.740Z,27.10
2019-06-08T09:48:49.055Z,27.20
2019-06-08T09:51:22.159Z,27.20
2019-06-08T09:53:54.379Z,27.30
2019-06-08T09:56:28.272Z,27.50
2019-06-08T09:59:04.030Z,27.50
2019-06-08T10:01:33.661Z,27.60
2019-06-08T10:04:08.518Z,27.80
2019-06-08T10:06:40.444Z,27.90
2019-06-08T10:09:11.719Z,27.90
2019-06-08T10:11:43.359Z,28.00
2019-06-08T10:14:18.525Z,28.10
2019-06-08T10:16:48.501Z,28.20
2019-06-08T10:19:20.280Z,28.30
2019-06-08T10:21:52.404Z,28.30
2019-06-08T10:24:26.416Z,28.40
2019-06-08T10:26:59.277Z,28.50
2019-06-08T10:29:30.214Z,28.50
2019-06-08T10:32:03.777Z,28.60
2019-06-08T10:34:34.578Z,28.60
2019-06-08T10:37:12.543Z,28.70
2019-06-08T10:39:40.943Z,28.80
2019-06-08T10:42:14.345Z,28.80
2019-06-08T10:44:45.774Z,28.90
2019-06-08T10:47:16.759Z,29.00
2019-06-08T10:49:48.932Z,29.00
2019-06-08T10:52:20.666Z,29.10
2019-06-08T10:54:51.332Z,29.20
2019-06-08T10:57:22.592Z,29.30
2019-06-08T10:59:53.653Z,29.40
2019-06-08T11:02:24.052Z,29.50
2019-06-08T11:04:54.669Z,29.50
2019-06-08T11:07:27.843Z,29.60
2019-06-08T11:09:58.747Z,29.60
2019-06-08T11:12:31.860Z,29.70
2019-06-08T11:15:05.098Z,29.70
2019-06-08T11:17:40.396Z,29.80
2019-06-08T11:20:13.630Z,29.90
2019-06-08T11:22:43.771Z,30.00
2019-06-08T11:25:16.651Z,30.00
2019-06-08T11:27:47.550Z,30.20
2019-06-08T11:30:26.405Z,30.30
2019-06-08T11:32:53.557Z,30.30
2019-06-08T11:35:29.537Z,30.40
2019-06-08T11:38:02.117Z,30.60
2019-06-08T11:40:34.508Z,30.70
2019-06-08T11:43:06.480Z,30.80
2019-06-08T11:45:38.657Z,30.90
2019-06-08T11:48:10.853Z,30.90
2019-06-08T11:50:43.703Z,31.00
2019-06-08T11:53:14.939Z,31.10
2019-06-08T11:55:51.150Z,31.20
2019-06-08T11:58:23.942Z,31.20
2019-06-08T12:01:06.551Z,31.30
2019-06-08T12:03:38.721Z,31.30
2019-06-08T12:06:23.362Z,31.30
2019-06-08T12:08:53.023Z,31.40
2019-06-08T12:11:24.541Z,31.50
2019-06-08T12:13:59.860Z,31.60
2019-06-08T12:16:31.904Z,31.50
2019-06-08T12:19:06.025Z,31.50
2019-06-08T12:21:36.581Z,31.60
2019-06-08T12:24:08.161Z,31.80
2019-06-08T12:26:37.746Z,31.80
2019-06-08T12:29:11.320Z,31.90
2019-06-08T12:31:39.822Z,32.00
2019-06-08T12:34:13.414Z,32.10
2019-06-08T12:36:43.912Z,32.10
2019-06-08T12:39:14.336Z,32.20
2019-06-08T12:41:44.617Z,32.20
2019-06-08T12:44:17.371Z,32.40
2019-06-08T12:46:48.714Z,32.50
2019-06-08T12:49:20.367Z,32.70
2019-06-08T12:51:52.136Z,32.80
2019-06-08T12:54:22.483Z,32.90
2019-06-08T12:56:52.687Z,32.90
2019-06-08T12:59:23.219Z,32.70
2019-06-08T13:01:53.497Z,32.40
2019-06-08T13:04:24.043Z,32.20
2019-06-08T13:06:55.422Z,31.90
2019-06-08T13:09:29.697Z,31.80
2019-06-08T13:11:59.486Z,31.80
2019-06-08T13:14:29.824Z,31.90
2019-06-08T13:17:01.156Z,31.90
2019-06-08T13:19:33.793Z,31.70
2019-06-08T13:22:04.050Z,31.50
2019-06-08T13:24:55.641Z,31.60
2019-06-08T13:27:28.085Z,31.60
2019-06-08T13:29:57.846Z,31.60
2019-06-08T13:32:28.692Z,31.60
2019-06-08T13:35:10.408Z,31.70
2019-06-08T13:37:43.044Z,31.50
2019-06-08T13:40:18.572Z,31.80
2019-06-08T13:42:48.412Z,32.30
2019-06-08T13:45:22.134Z,32.70
2019-06-08T13:47:52.600Z,33.10
2019-06-08T13:50:24.011Z,33.40
2019-06-08T13:52:53.596Z,33.80
2019-06-08T13:55:47.108Z,34.10
2019-06-08T13:57:57.989Z,34.40
2019-06-08T14:00:38.133Z,34.80
2019-06-08T14:03:08.837Z,35.10
2019-06-08T14:05:39.187Z,35.40
2019-06-08T14:08:10.973Z,35.60
2019-06-08T14:10:42.106Z,35.70
2019-06-08T14:13:12.370Z,35.90
2019-06-08T14:15:43.445Z,36.20
2019-06-08T14:18:13.685Z,36.50
2019-06-08T14:20:43.955Z,36.70
2019-06-08T14:23:14.181Z,37.00
2019-06-08T14:25:50.570Z,37.20
2019-06-08T14:28:19.333Z,37.50
2019-06-08T14:30:48.247Z,37.80
2019-06-08T14:33:25.172Z,38.00
2019-06-08T14:35:50.379Z,38.10
2019-06-08T14:38:25.546Z,38.40
2019-06-08T14:40:52.595Z,38.60
2019-06-08T14:43:23.277Z,38.90
2019-06-08T14:45:53.593Z,38.60
2019-06-08T14:48:26.029Z,38.50
2019-06-08T14:50:58.291Z,38.70
2019-06-08T14:53:28.889Z,39.00
2019-06-08T14:56:05.584Z,39.40
2019-06-08T14:58:34.673Z,39.40
2019-06-08T15:01:03.976Z,39.20
2019-06-08T15:03:37.738Z,38.90
2019-06-08T15:06:08.314Z,38.60
2019-06-08T15:08:38.958Z,38.40
2019-06-08T15:11:09.940Z,38.10
2019-06-08T15:13:40.572Z,37.70
2019-06-08T15:16:10.922Z,37.30
2019-06-08T15:18:41.223Z,37.10
2019-06-08T15:21:11.924Z,36.70
2019-06-08T15:23:42.144Z,36.50
2019-06-08T15:26:26.606Z,36.30
2019-06-08T15:28:44.255Z,36.30
2019-06-08T15:31:18.371Z,36.10
2019-06-08T15:33:49.887Z,35.90
2019-06-08T15:36:20.859Z,35.80
2019-06-08T15:38:51.948Z,35.90
2019-06-08T15:41:24.249Z,35.80
2019-06-08T15:43:54.196Z,35.60
2019-06-08T15:46:24.450Z,35.50
2019-06-08T15:48:54.782Z,35.40
2019-06-08T15:51:26.369Z,35.30
2019-06-08T15:53:57.932Z,35.30
2019-06-08T15:56:41.754Z,35.20
2019-06-08T15:59:00.398Z,35.10
2019-06-08T16:01:31.792Z,35.00
2019-06-08T16:04:04.014Z,35.00
2019-06-08T16:06:38.853Z,34.90
2019-06-08T16:09:09.324Z,34.70
2019-06-08T16:11:39.683Z,34.40
2019-06-08T16:14:09.868Z,34.30
2019-06-08T16:16:40.156Z,34.30
2019-06-08T16:19:10.649Z,34.10
2019-06-08T16:21:40.983Z,34.00
2019-06-08T16:24:11.617Z,33.90
2019-06-08T16:26:52.624Z,33.80
2019-06-08T16:29:15.556Z,33.70
2019-06-08T16:31:46.879Z,33.60
2019-06-08T16:34:17.301Z,33.50
2019-06-08T16:36:47.727Z,33.50
2019-06-08T16:39:18.097Z,33.40
2019-06-08T16:41:48.346Z,33.30
2019-06-08T16:44:18.633Z,33.20
2019-06-08T16:46:49.087Z,33.10
2019-06-08T16:49:19.516Z,33.00
2019-06-08T16:51:49.797Z,32.90
2019-06-08T16:54:20.209Z,32.80
2019-06-08T16:56:50.448Z,32.70
2019-06-08T16:59:20.701Z,32.70
2019-06-08T17:01:51.012Z,32.60
2019-06-08T17:04:21.283Z,32.50
2019-06-08T17:06:51.581Z,32.30
2019-06-08T17:09:21.934Z,32.20
2019-06-08T17:11:52.541Z,32.10
2019-06-08T17:14:24.928Z,32.00
2019-06-08T17:16:54.994Z,31.90
2019-06-08T17:19:25.327Z,31.70
2019-06-08T17:21:55.774Z,31.40
2019-06-08T17:24:25.973Z,31.20
2019-06-08T17:26:56.326Z,31.10
2019-06-08T17:29:26.535Z,31.00
2019-06-08T17:31:56.749Z,31.00
2019-06-08T17:34:27.044Z,30.80
2019-06-08T17:36:57.344Z,30.80
2019-06-08T17:39:32.135Z,30.50
2019-06-08T17:42:02.354Z,30.50
2019-06-08T17:44:32.646Z,30.30
2019-06-08T17:47:02.894Z,30.20
2019-06-08T17:49:34.426Z,30.20
2019-06-08T17:52:04.812Z,30.10
2019-06-08T17:54:35.210Z,30.00
2019-06-08T17:57:05.500Z,29.90
2019-06-08T17:59:35.749Z,29.90
2019-06-08T18:02:08.059Z,29.80
2019-06-08T18:04:39.241Z,29.80
2019-06-08T18:07:08.885Z,29.70
2019-06-08T18:09:40.688Z,29.70
2019-06-08T18:12:11.116Z,29.60
2019-06-08T18:14:49.031Z,29.60
2019-06-08T18:17:19.307Z,29.50
2019-06-08T18:19:49.904Z,29.50
2019-06-08T18:22:20.224Z,29.40
2019-06-08T18:24:52.818Z,29.30
2019-06-08T18:27:23.161Z,29.20
2019-06-08T18:29:53.338Z,29.10
2019-06-08T18:32:23.668Z,29.00
2019-06-08T18:34:57.104Z,28.90
2019-06-08T18:37:28.452Z,28.80
2019-06-08T18:39:58.880Z,28.70
2019-06-08T18:42:29.088Z,28.70
2019-06-08T18:44:59.290Z,28.60
2019-06-08T18:47:29.520Z,28.50
2019-06-08T18:50:00.750Z,28.40
2019-06-08T18:52:30.926Z,28.30
2019-06-08T18:55:01.213Z,28.20
2019-06-08T18:57:31.469Z,28.10
2019-06-08T19:00:08.128Z,28.00
2019-06-08T19:02:33.709Z,28.00
2019-06-08T19:05:04.089Z,27.90
2019-06-08T19:07:34.703Z,27.80
2019-06-08T19:10:07.587Z,27.80
2019-06-08T19:12:39.640Z,27.70
2019-06-08T19:15:11.446Z,27.60
2019-06-08T19:17:48.226Z,27.50
2019-06-08T19:20:13.872Z,27.50
2019-06-08T19:22:47.711Z,27.40
2019-06-08T19:25:17.581Z,27.40
2019-06-08T19:27:53.053Z,27.30
2019-06-08T19:30:20.389Z,27.20
2019-06-08T19:32:52.571Z,27.20
2019-06-08T19:35:22.866Z,27.10
2019-06-08T19:37:53.890Z,27.00
2019-06-08T19:40:24.400Z,27.00
2019-06-08T19:42:58.023Z,26.90
2019-06-08T19:45:27.664Z,26.80
2019-06-08T19:47:58.967Z,26.80
2019-06-08T19:50:29.187Z,26.70
2019-06-08T19:52:59.574Z,26.70
2019-06-08T19:55:31.241Z,26.60
2019-06-08T19:58:01.588Z,26.50
2019-06-08T20:00:32.228Z,26.50
2019-06-08T20:03:02.591Z,26.40
2019-06-08T20:05:32.873Z,26.40
2019-06-08T20:08:03.169Z,26.30
2019-06-08T20:10:38.720Z,26.30
2019-06-08T20:13:08.968Z,26.20
2019-06-08T20:15:44.362Z,26.00
2019-06-08T20:18:12.170Z,26.00
2019-06-08T20:20:43.818Z,25.90
2019-06-08T20:23:14.044Z,25.90
2019-06-08T20:25:45.215Z,25.80
2019-06-08T20:28:17.335Z,25.60
2019-06-08T20:30:46.878Z,25.50
2019-06-08T20:33:23.303Z,25.40
2019-06-08T20:35:53.919Z,25.30
2019-06-08T20:38:35.114Z,25.20
2019-06-08T20:40:57.963Z,25.20
2019-06-08T20:43:28.483Z,25.10
2019-06-08T20:45:58.757Z,25.10
2019-06-08T20:48:29.051Z,25.10
2019-06-08T20:50:59.283Z,25.10
2019-06-08T20:53:29.501Z,25.00
2019-06-08T20:55:59.918Z,25.00
2019-06-08T20:58:31.249Z,24.90
2019-06-08T21:01:01.429Z,24.80
2019-06-08T21:03:33.680Z,24.80
2019-06-08T21:06:03.105Z,24.80
2019-06-08T21:08:33.146Z,24.80
2019-06-08T21:11:03.421Z,24.70
2019-06-08T21:13:37.859Z,24.70
2019-06-08T21:16:10.982Z,24.70
2019-06-08T21:18:46.892Z,24.60
2019-06-08T21:21:17.566Z,24.60
2019-06-08T21:23:51.653Z,24.60
2019-06-08T21:26:22.329Z,24.50
2019-06-08T21:28:54.445Z,24.50
2019-06-08T21:31:24.408Z,24.50
2019-06-08T21:33:56.726Z,24.40
2019-06-08T21:36:26.577Z,24.40
2019-06-08T21:39:00.501Z,24.30
2019-06-08T21:41:28.666Z,24.30
2019-06-08T21:44:01.893Z,24.30
2019-06-08T21:46:30.785Z,24.30
2019-06-08T21:49:01.022Z,24.30
2019-06-08T21:51:31.283Z,24.30
2019-06-08T21:54:01.503Z,24.20
2019-06-08T21:56:31.803Z,24.20
2019-06-08T21:59:02.007Z,24.20
2019-06-08T22:01:33.528Z,24.20
2019-06-08T22:04:03.820Z,24.10
2019-06-08T22:06:34.101Z,24.10
2019-06-08T22:09:07.811Z,24.10
2019-06-08T22:11:38.316Z,24.00
2019-06-08T22:14:08.563Z,24.00
2019-06-08T22:16:39.809Z,23.90
2019-06-08T22:19:10.107Z,23.90
2019-06-08T22:21:42.899Z,23.80
2019-06-08T22:24:13.237Z,23.80
2019-06-08T22:26:46.664Z,23.70
2019-06-08T22:29:18.235Z,23.70
2019-06-08T22:31:48.587Z,23.70
2019-06-08T22:34:18.848Z,23.60
2019-06-08T22:36:49.207Z,23.60
2019-06-08T22:39:19.511Z,23.60
2019-06-08T22:41:49.829Z,23.60
2019-06-08T22:44:20.005Z,23.50
2019-06-08T22:46:50.224Z,23.50
2019-06-08T22:49:29.703Z,23.50
2019-06-08T22:52:01.385Z,23.50
2019-06-08T22:54:31.808Z,23.50
2019-06-08T22:57:04.414Z,23.50
2019-06-08T22:59:33.981Z,23.50
2019-06-08T23:02:05.933Z,23.40
2019-06-08T23:04:51.195Z,23.40
2019-06-08T23:07:28.546Z,23.30
2019-06-08T23:09:55.014Z,23.20
2019-06-08T23:12:25.078Z,23.20
2019-06-08T23:14:56.885Z,23.00
2019-06-08T23:17:28.156Z,23.00
2019-06-08T23:19:59.262Z,22.90
2019-06-08T23:22:30.215Z,22.90
2019-06-08T23:25:01.596Z,22.90
2019-06-08T23:27:32.381Z,22.90
2019-06-08T23:30:03.827Z,22.90
2019-06-08T23:32:34.477Z,22.90
2019-06-08T23:35:09.573Z,22.90
2019-06-08T23:37:40.180Z,22.80
2019-06-08T23:40:10.598Z,22.80
2019-06-08T23:42:40.808Z,22.80
2019-06-08T23:45:11.006Z,22.80
2019-06-08T23:47:47.849Z,22.80
2019-06-08T23:50:17.912Z,22.70
2019-06-08T23:53:24.018Z,22.70
2019-06-08T23:56:18.905Z,22.70
2019-06-08T23:58:49.981Z,22.70
